SVMC/MAR METAR and TAF weather

Enter ICAO airport designator
Station Type Date Time Source
SVMC METAR 2020/09/19 02:02 UTC NOAA

SVMC 190202Z AUTO 04005KT NCD 29/23 Q1010


Station Type Date Time Source
SVMC Decoded METAR 2020/09/19 02:02 UTC NOAA

Maracaibo-La Chinita, Venezuela (SVMC) 10-34N 071-44W 65M
Sep 18, 2020 - 10:02 PM EDT / 2020.09.19 0202 UTC
Wind: from the NE (040 degrees) at 6 MPH (5 KT):0
Temperature: 84 F (29 C)
Dew Point: 73 F (23 C)
Relative Humidity: 70%
Pressure (altimeter): 29.83 in. Hg (1010 hPa)
ob: SVMC 190202Z AUTO 04005KT NCD 29/23 Q1010
cycle: 2

Station Type Date Time Source
SVMC TAF 2020/09/18 18:04 UTC NOAA

TAF SVMC 181600Z 1818/1918 21005KT 9999 SCT016 TX34/1819Z TN24/1807Z
BECMG 1818/1822 15008KT 9999 FEW016

Example: see airport list